< < Back
Terminal Aerodrome Forecast


Current Version              Previous Versions:   1  2  3  4  5  6  7  8  9  

Terminal Aerodrome Forecast

086
FTUS42 KFFC 201800 AAA
TAFATL
TAF AMD
KATL 201857Z 2019/2124 29010KT P6SM VCSH BKN035
      TEMPO 2019/2023 VRB20G35KT 3SM -TSRA BR BKN030CB
     FM210200 29004KT P6SM FEW070
     FM211600 30006KT P6SM SCT060=

Latest METAR

986
SAUS70 KWBC 202000 RRE
MTRATL
METAR KATL 201952Z 21007KT 10SM -TSRA FEW020CB SCT050 BKN100 BKN200
23/20 A3007 RMK AO2 PK WND 24043/1904 RAB01 SLP175 FRQ
LTGICCG SE-S-SW TS VC SE-S-SW MOV SE CB SE-S-SW MOV SE SHRA
VC SE-S-SW P0055 T02280200


USA.gov is the U.S. government's official web portal to all federal, state and local government web resources and services.